createdAt,value
2024-03-16T00:00:11.754Z,15.43
2024-03-16T00:04:13.931Z,9.20
2024-03-16T00:08:15.722Z,14.82
2024-03-16T00:12:18.142Z,13.90
2024-03-16T00:16:20.428Z,13.48
2024-03-16T00:20:22.262Z,9.63
2024-03-16T00:24:24.086Z,10.65
2024-03-16T00:28:25.872Z,7.70
2024-03-16T00:32:27.792Z,11.18
2024-03-16T00:36:29.599Z,8.63
2024-03-16T00:40:31.328Z,12.98
2024-03-16T00:44:33.092Z,8.10
2024-03-16T00:48:35.025Z,12.50
2024-03-16T00:52:36.885Z,10.80
2024-03-16T00:56:39.735Z,12.40
2024-03-16T01:00:41.603Z,8.95
2024-03-16T01:04:43.348Z,10.48
2024-03-16T01:08:45.051Z,10.93
2024-03-16T01:12:47.017Z,9.73
2024-03-16T01:16:48.843Z,9.88
2024-03-16T01:20:50.573Z,10.63
2024-03-16T01:24:52.361Z,15.48
2024-03-16T01:28:54.243Z,12.60
2024-03-16T01:32:55.986Z,7.25
2024-03-16T01:36:57.795Z,16.17
2024-03-16T01:40:59.616Z,13.65
2024-03-16T01:45:14.596Z,12.90
2024-03-16T01:49:16.453Z,11.50
2024-03-16T01:53:18.270Z,4.68
2024-03-16T01:57:20.196Z,5.18
2024-03-16T02:01:22.750Z,3.72
2024-03-16T02:05:25.279Z,7.47
2024-03-16T02:09:27.253Z,7.57
2024-03-16T02:13:29.047Z,6.63
2024-03-16T02:17:30.776Z,8.25
2024-03-16T02:21:32.649Z,5.38
2024-03-16T02:25:35.014Z,4.70
2024-03-16T02:29:38.037Z,4.97
2024-03-16T02:33:39.764Z,3.70
2024-03-16T02:37:41.865Z,2.53
2024-03-16T02:41:43.660Z,2.58
2024-03-16T02:45:45.463Z,4.35
2024-03-16T02:49:49.259Z,3.55
2024-03-16T02:53:53.085Z,2.53
2024-03-16T02:57:55.059Z,3.42
2024-03-16T03:01:58.592Z,3.38
2024-03-16T03:06:00.383Z,4.82
2024-03-16T03:10:02.397Z,5.00
2024-03-16T03:14:16.240Z,4.60
2024-03-16T03:18:18.066Z,4.63
2024-03-16T03:22:20.998Z,5.38
2024-03-16T03:26:24.138Z,6.07
2024-03-16T03:30:26.016Z,4.35
2024-03-16T03:34:27.859Z,5.00
2024-03-16T03:38:30.199Z,6.32
2024-03-16T03:42:35.164Z,5.78
2024-03-16T03:46:52.085Z,6.47
2024-03-16T03:50:56.313Z,5.00
2024-03-16T03:54:58.144Z,3.75
2024-03-16T03:58:59.982Z,5.80
2024-03-16T04:03:02.376Z,4.40
2024-03-16T04:07:04.197Z,5.53
2024-03-16T04:11:07.097Z,4.32
2024-03-16T04:15:09.124Z,7.75
2024-03-16T04:19:11.295Z,4.28
2024-03-16T04:23:13.673Z,3.47
2024-03-16T04:27:15.683Z,3.33
2024-03-16T04:31:18.332Z,2.88
2024-03-16T04:35:20.597Z,3.40
2024-03-16T04:39:22.545Z,5.57
2024-03-16T04:43:25.910Z,3.83
2024-03-16T04:47:30.778Z,3.58
2024-03-16T04:52:16.916Z,3.60
2024-03-16T04:56:18.768Z,5.22
2024-03-16T05:00:20.609Z,4.18
2024-03-16T05:04:22.525Z,5.40
2024-03-16T05:08:24.194Z,3.50
2024-03-16T05:12:26.400Z,4.65
2024-03-16T05:16:28.265Z,4.55
2024-03-16T05:20:29.945Z,3.70
2024-03-16T05:24:32.345Z,4.65
2024-03-16T05:28:34.277Z,4.65
2024-03-16T05:32:36.267Z,4.95
2024-03-16T05:36:38.276Z,5.45
2024-03-16T05:40:42.780Z,3.40
2024-03-16T05:44:44.525Z,3.10
2024-03-16T05:48:46.456Z,3.40
2024-03-16T05:52:48.261Z,3.35
2024-03-16T05:56:50.736Z,1.73
2024-03-16T06:00:52.650Z,3.72
2024-03-16T06:04:54.541Z,2.50
2024-03-16T06:08:56.266Z,3.75
2024-03-16T06:12:58.420Z,5.25
2024-03-16T06:17:00.214Z,4.63
2024-03-16T06:21:02.256Z,3.60
2024-03-16T06:25:04.340Z,5.60
2024-03-16T06:29:06.804Z,5.35
2024-03-16T06:33:12.050Z,2.92
2024-03-16T06:37:13.947Z,3.20
2024-03-16T06:41:15.719Z,2.72
2024-03-16T06:45:17.472Z,3.33
2024-03-16T06:49:19.369Z,3.10
2024-03-16T06:53:21.127Z,3.67
2024-03-16T06:57:22.900Z,6.15
2024-03-16T07:01:25.924Z,3.30
2024-03-16T07:05:27.772Z,5.53
2024-03-16T07:09:29.622Z,3.88
2024-03-16T07:13:31.576Z,2.90
2024-03-16T07:17:33.423Z,4.75
2024-03-16T07:21:35.196Z,3.70
2024-03-16T07:25:36.930Z,2.70
2024-03-16T07:29:38.857Z,7.45
2024-03-16T07:33:40.682Z,7.07
2024-03-16T07:37:42.705Z,3.45
2024-03-16T07:41:47.390Z,5.80
2024-03-16T07:45:52.487Z,5.28
2024-03-16T07:49:54.264Z,4.78
2024-03-16T07:53:56.784Z,8.70
2024-03-16T07:58:01.267Z,10.32
2024-03-16T08:02:03.570Z,5.47
2024-03-16T08:06:08.524Z,7.93
2024-03-16T08:10:11.251Z,6.18
2024-03-16T08:14:13.194Z,5.60
2024-03-16T08:18:14.925Z,7.00
2024-03-16T08:22:16.901Z,8.05
2024-03-16T08:26:18.948Z,5.32
2024-03-16T08:30:20.764Z,7.57
2024-03-16T08:34:22.836Z,3.40
2024-03-16T08:38:25.338Z,5.68
2024-03-16T08:42:27.177Z,4.00
2024-03-16T08:46:30.208Z,2.53
2024-03-16T08:50:32.079Z,2.72
2024-03-16T08:54:34.311Z,4.00
2024-03-16T08:58:36.294Z,6.55
2024-03-16T09:02:38.080Z,2.85
2024-03-16T09:06:41.964Z,2.83
2024-03-16T09:10:43.814Z,2.50
2024-03-16T09:14:45.546Z,3.22
2024-03-16T09:18:47.723Z,3.67
2024-03-16T09:22:50.728Z,2.63
2024-03-16T09:26:53.157Z,4.63
2024-03-16T09:30:57.087Z,4.78
2024-03-16T09:34:59.774Z,4.63
2024-03-16T09:39:01.528Z,5.20
